Time;durP1;ratioP1;P1;durP2;ratioP2;P2;SDS_P1;SDS_P2;PMS_P1;PMS_P2;Temp;Humidity;BMP_temperature;BMP_pressure;BME280_temperature;BME280_humidity;BME280_pressure;Samples;Min_cycle;Max_cycle;Signal;HPM_P1;HPM_P2
2024/03/04 00:01:29;;;;;;;98.32;55.92;;;7.40;99.90;;;;;;5001200;28;20931;-66
2024/03/04 00:03:55;;;;;;;102.78;54.90;;;7.40;99.90;;;;;;5001130;28;20274;-64
2024/03/04 00:06:21;;;;;;;102.18;54.97;;;7.30;99.90;;;;;;5000726;28;20202;-66
2024/03/04 00:08:47;;;;;;;108.88;55.47;;;7.30;99.90;;;;;;5000427;28;20209;-66
2024/03/04 00:11:14;;;;;;;97.38;55.45;;;7.30;99.90;;;;;;5000220;28;20712;-66
2024/03/04 00:13:39;;;;;;;94.65;54.28;;;7.30;99.90;;;;;;5000886;28;20811;-66
2024/03/04 00:16:05;;;;;;;99.75;54.25;;;7.30;99.90;;;;;;4999078;28;20236;-66
2024/03/04 00:18:31;;;;;;;102.50;54.80;;;7.20;99.90;;;;;;5000825;28;20188;-66
2024/03/04 00:20:58;;;;;;;98.10;53.35;;;7.20;99.90;;;;;;5000274;28;20219;-65
2024/03/04 00:23:24;;;;;;;98.93;53.67;;;7.20;99.90;;;;;;5000796;28;20943;-66
2024/03/04 00:25:50;;;;;;;97.72;52.13;;;7.20;99.90;;;;;;5001331;28;20679;-66
2024/03/04 00:28:16;;;;;;;102.63;54.38;;;7.10;99.90;;;;;;5000486;28;20200;-66
2024/03/04 00:30:43;;;;;;;98.68;52.40;;;7.10;99.90;;;;;;5001017;28;20679;-66
2024/03/04 00:33:09;;;;;;;104.30;54.05;;;7.10;99.90;;;;;;5000686;28;20199;-65
2024/03/04 00:35:35;;;;;;;95.88;52.95;;;7.00;99.90;;;;;;5000667;28;20184;-65
2024/03/04 00:38:02;;;;;;;89.22;52.08;;;7.00;99.90;;;;;;5000958;28;20200;-64
2024/03/04 00:40:28;;;;;;;97.75;53.83;;;7.00;99.90;;;;;;5000144;28;20189;-65
2024/03/04 00:42:54;;;;;;;93.90;53.42;;;7.00;99.90;;;;;;5000342;28;20192;-66
2024/03/04 00:45:20;;;;;;;102.05;54.22;;;7.00;99.90;;;;;;5000762;28;20541;-65
2024/03/04 00:47:46;;;;;;;93.85;52.42;;;6.90;99.90;;;;;;5000236;28;20802;-65
2024/03/04 00:50:12;;;;;;;103.30;52.97;;;6.90;99.90;;;;;;5000475;28;20752;-66
2024/03/04 00:52:38;;;;;;;96.53;51.85;;;6.90;99.90;;;;;;5000317;28;20220;-65
2024/03/04 00:55:07;;;;;;;93.85;51.22;;;6.90;99.90;;;;;;5000644;28;20185;-66
2024/03/04 00:57:34;;;;;;;97.35;51.08;;;6.80;99.90;;;;;;4999195;28;20218;-66
2024/03/04 01:00:00;;;;;;;92.18;52.17;;;6.80;99.90;;;;;;5000344;28;20204;-65
2024/03/04 01:02:27;;;;;;;96.65;51.13;;;6.80;99.90;;;;;;5000812;28;20281;-67
2024/03/04 01:04:54;;;;;;;94.85;49.90;;;6.80;99.90;;;;;;5000302;28;20223;-66
2024/03/04 01:07:20;;;;;;;89.45;49.40;;;6.80;99.90;;;;;;5000593;28;20767;-66
2024/03/04 01:09:46;;;;;;;92.57;51.22;;;6.80;99.90;;;;;;5000777;28;20196;-65
2024/03/04 01:12:12;;;;;;;92.03;50.90;;;6.80;99.90;;;;;;5000211;28;20219;-65
2024/03/04 01:14:40;;;;;;;91.32;49.58;;;6.70;99.90;;;;;;5000341;28;20192;-66
2024/03/04 01:17:16;;;;;;;90.85;51.67;;;6.70;99.90;;;;;;5000287;28;20291;-66
2024/03/04 01:19:45;;;;;;;93.43;50.42;;;6.70;99.90;;;;;;5000460;28;20283;-65
2024/03/04 01:22:16;;;;;;;89.15;50.35;;;6.70;99.90;;;;;;5000544;28;20216;-65
2024/03/04 01:24:49;;;;;;;93.15;50.08;;;6.70;99.90;;;;;;5002236;28;21280;-64
2024/03/04 01:27:16;;;;;;;98.45;52.17;;;6.70;99.90;;;;;;5003731;28;20192;-66
2024/03/04 01:29:41;;;;;;;96.35;50.10;;;6.70;99.90;;;;;;5003948;28;20184;-66
2024/03/04 01:32:10;;;;;;;98.95;52.60;;;6.60;99.90;;;;;;5003520;28;20263;-66
2024/03/04 01:34:39;;;;;;;98.90;52.42;;;6.60;99.90;;;;;;5004335;28;20197;-66
2024/03/04 01:37:06;;;;;;;100.57;51.45;;;6.70;99.90;;;;;;5003795;28;20259;-65
2024/03/04 01:39:33;;;;;;;95.75;51.72;;;6.60;99.90;;;;;;5002176;28;20203;-66
2024/03/04 01:41:59;;;;;;;105.97;53.30;;;6.60;99.90;;;;;;5003378;28;20196;-66
2024/03/04 01:44:38;;;;;;;93.05;52.72;;;6.60;99.90;;;;;;5003386;28;20239;-65
2024/03/04 01:47:10;;;;;;;104.40;54.97;;;6.60;99.90;;;;;;5003210;28;20216;-66
2024/03/04 01:49:38;;;;;;;94.53;50.70;;;6.60;99.90;;;;;;5002699;28;20235;-66
2024/03/04 01:52:05;;;;;;;105.93;55.63;;;6.60;99.90;;;;;;5003275;28;20970;-67
2024/03/04 01:54:32;;;;;;;104.55;53.22;;;6.60;99.90;;;;;;5003022;28;20189;-66
2024/03/04 01:56:58;;;;;;;98.88;53.22;;;6.60;99.90;;;;;;5003314;28;20276;-66
2024/03/04 01:59:25;;;;;;;101.90;54.10;;;6.60;99.90;;;;;;5003614;28;20389;-66
2024/03/04 02:01:52;;;;;;;100.10;52.42;;;6.60;99.90;;;;;;5003308;28;20333;-66
2024/03/04 02:04:19;;;;;;;102.70;53.05;;;6.60;99.90;;;;;;5002554;28;20676;-64
2024/03/04 02:06:46;;;;;;;103.80;54.45;;;6.50;99.90;;;;;;5018199;28;20188;-64
2024/03/04 02:09:15;;;;;;;97.63;51.78;;;6.60;99.90;;;;;;5003079;28;20857;-65
2024/03/04 02:11:41;;;;;;;97.72;53.72;;;6.60;99.90;;;;;;5003403;28;20216;-64
2024/03/04 02:14:08;;;;;;;101.95;53.58;;;6.60;99.90;;;;;;5002822;28;20627;-65
2024/03/04 02:16:33;;;;;;;106.50;52.72;;;6.60;99.90;;;;;;5002990;28;20193;-66
2024/03/04 02:19:00;;;;;;;102.57;52.78;;;6.60;99.90;;;;;;5003223;28;20657;-65
2024/03/04 02:21:30;;;;;;;98.22;53.47;;;6.60;99.90;;;;;;5003513;28;20197;-64
2024/03/04 02:23:56;;;;;;;99.40;53.00;;;6.70;99.90;;;;;;5002566;28;20189;-66
2024/03/04 02:26:22;;;;;;;96.65;52.92;;;6.70;99.90;;;;;;5002743;28;20199;-66
2024/03/04 02:28:48;;;;;;;101.28;56.28;;;6.70;99.90;;;;;;5002599;28;20224;-66
2024/03/04 02:31:14;;;;;;;97.15;52.28;;;6.70;99.90;;;;;;5002450;28;21486;-66
2024/03/04 02:33:44;;;;;;;96.97;54.17;;;6.80;99.90;;;;;;5001447;28;20258;-67
2024/03/04 02:36:10;;;;;;;102.35;53.90;;;6.80;99.90;;;;;;5002616;28;20197;-66
2024/03/04 02:38:37;;;;;;;103.47;53.30;;;6.80;99.90;;;;;;4985344;28;20203;-67
2024/03/04 02:41:04;;;;;;;98.80;53.42;;;6.80;99.90;;;;;;5002428;28;20193;-66
2024/03/04 02:43:30;;;;;;;98.82;53.20;;;6.80;99.90;;;;;;5001924;28;20228;-65
2024/03/04 02:45:56;;;;;;;99.70;54.53;;;6.90;99.90;;;;;;5003132;28;20216;-65
2024/03/04 02:48:22;;;;;;;97.22;51.67;;;6.90;99.90;;;;;;4999742;28;20228;-65
2024/03/04 02:50:49;;;;;;;92.72;51.47;;;6.90;99.90;;;;;;5002238;28;20216;-65
2024/03/04 02:53:15;;;;;;;94.35;52.13;;;7.00;99.90;;;;;;5017178;28;20197;-66
2024/03/04 02:55:42;;;;;;;91.88;52.17;;;7.00;99.90;;;;;;5002228;28;20195;-66
2024/03/04 02:58:08;;;;;;;98.25;52.65;;;7.10;99.90;;;;;;5002399;28;20713;-65
2024/03/04 03:00:34;;;;;;;92.82;51.90;;;7.20;99.90;;;;;;5001951;28;20272;-66
2024/03/04 03:03:02;;;;;;;93.18;52.20;;;7.10;99.90;;;;;;5001814;28;20215;-65
2024/03/04 03:05:28;;;;;;;92.28;52.28;;;7.30;99.90;;;;;;5001750;28;20192;-65
2024/03/04 03:07:54;;;;;;;89.20;51.38;;;7.30;99.90;;;;;;5002479;28;20653;-66
2024/03/04 03:10:20;;;;;;;90.47;51.55;;;7.40;99.90;;;;;;5001836;28;20205;-66
2024/03/04 03:12:46;;;;;;;94.60;51.97;;;7.40;99.90;;;;;;5001280;28;20212;-66
2024/03/04 03:15:12;;;;;;;97.75;52.70;;;7.40;99.90;;;;;;5002124;28;20191;-65
2024/03/04 03:17:37;;;;;;;94.00;51.75;;;7.40;99.90;;;;;;5001088;28;21847;-66
2024/03/04 03:20:16;;;;;;;88.78;51.53;;;7.50;99.90;;;;;;5001425;28;20258;-65
2024/03/04 03:22:51;;;;;;;87.68;50.50;;;7.50;99.90;;;;;;5000268;28;20224;-65
2024/03/04 03:25:17;;;;;;;87.40;51.03;;;7.60;99.90;;;;;;5001358;28;20188;-65
2024/03/04 03:27:42;;;;;;;87.30;51.15;;;7.60;99.90;;;;;;5001525;28;20203;-65
2024/03/04 03:30:09;;;;;;;91.00;50.58;;;7.70;99.90;;;;;;5001458;28;20193;-64
2024/03/04 03:32:37;;;;;;;91.43;52.05;;;7.70;99.90;;;;;;5001433;28;20208;-65
2024/03/04 03:35:03;;;;;;;88.65;50.92;;;7.80;99.90;;;;;;5001084;28;20288;-63
2024/03/04 03:37:28;;;;;;;87.40;51.55;;;7.80;99.90;;;;;;5001196;28;20197;-65
2024/03/04 03:39:54;;;;;;;89.72;49.72;;;7.80;99.90;;;;;;5001973;28;20203;-65
2024/03/04 03:42:21;;;;;;;88.65;49.58;;;7.90;99.90;;;;;;5001317;28;20207;-66
2024/03/04 03:44:47;;;;;;;94.22;51.30;;;7.90;99.90;;;;;;5001127;28;20224;-67
2024/03/04 03:47:12;;;;;;;99.38;54.33;;;7.90;99.90;;;;;;5001029;28;20220;-66
2024/03/04 03:49:38;;;;;;;103.90;53.28;;;7.90;99.90;;;;;;5000803;28;20229;-66
2024/03/04 03:52:04;;;;;;;90.85;52.00;;;7.80;99.90;;;;;;5001553;28;20677;-66
2024/03/04 03:54:31;;;;;;;91.47;51.53;;;7.80;99.90;;;;;;5001306;28;20250;-66
2024/03/04 03:56:58;;;;;;;94.70;52.17;;;7.80;99.90;;;;;;5000713;28;20250;-65
2024/03/04 03:59:24;;;;;;;93.35;53.33;;;7.80;99.90;;;;;;5001116;28;20196;-65
2024/03/04 04:01:49;;;;;;;100.30;54.08;;;7.70;99.90;;;;;;5001171;28;20183;-64
2024/03/04 04:04:15;;;;;;;103.20;53.88;;;7.70;99.90;;;;;;5001527;28;20883;-66
2024/03/04 04:06:41;;;;;;;95.78;53.22;;;7.60;99.90;;;;;;5002866;28;20200;-67
2024/03/04 04:09:07;;;;;;;94.97;51.78;;;7.50;99.90;;;;;;5000353;28;20188;-65
2024/03/04 04:11:32;;;;;;;96.10;52.22;;;7.50;99.90;;;;;;5015881;28;20212;-66
2024/03/04 04:13:58;;;;;;;100.78;54.28;;;7.50;99.90;;;;;;5001424;28;20196;-67
2024/03/04 04:16:30;;;;;;;103.70;55.60;;;7.40;99.90;;;;;;5000777;28;20246;-66
2024/03/04 04:18:56;;;;;;;118.53;59.53;;;7.30;99.90;;;;;;5000710;28;20279;-67
2024/03/04 04:21:21;;;;;;;107.18;57.15;;;7.20;99.90;;;;;;5001271;28;20279;-65
2024/03/04 04:23:47;;;;;;;100.47;54.92;;;7.20;99.90;;;;;;4999934;28;20196;-63
2024/03/04 04:26:23;;;;;;;113.10;56.67;;;7.20;99.90;;;;;;5000187;28;20188;-64
2024/03/04 04:28:49;;;;;;;113.13;57.35;;;7.10;99.90;;;;;;5000653;28;20236;-63
2024/03/04 04:31:22;;;;;;;116.97;57.60;;;7.00;99.90;;;;;;4999643;28;20224;-67
2024/03/04 04:33:48;;;;;;;122.72;60.35;;;7.00;99.90;;;;;;5000606;28;20191;-67
2024/03/04 04:36:16;;;;;;;118.80;59.75;;;6.90;99.90;;;;;;5000805;28;20181;-66
2024/03/04 04:38:42;;;;;;;118.97;59.45;;;6.90;99.90;;;;;;4999604;28;20169;-65
2024/03/04 04:41:08;;;;;;;133.20;62.45;;;6.90;99.90;;;;;;5000746;28;20221;-65
2024/03/04 04:43:35;;;;;;;131.52;63.25;;;6.90;99.90;;;;;;5000881;28;20243;-65
2024/03/04 04:46:01;;;;;;;139.25;63.92;;;6.80;99.90;;;;;;4999959;28;20272;-65
2024/03/04 04:48:27;;;;;;;141.52;64.90;;;6.90;99.90;;;;;;5000723;28;20349;-64
2024/03/04 04:50:52;;;;;;;124.60;61.42;;;6.90;99.90;;;;;;5000959;28;20296;-65
2024/03/04 04:53:20;;;;;;;145.18;68.38;;;6.90;99.90;;;;;;5000416;28;20185;-64
2024/03/04 04:55:46;;;;;;;149.90;68.60;;;7.00;99.90;;;;;;4998666;28;20251;-65
2024/03/04 04:58:14;;;;;;;145.70;70.00;;;7.10;99.90;;;;;;5002579;28;20702;-65
2024/03/04 05:00:43;;;;;;;133.75;64.45;;;7.20;99.90;;;;;;5002894;28;21160;-65
2024/03/04 05:03:09;;;;;;;124.35;62.20;;;7.30;99.90;;;;;;5019451;28;20184;-65
2024/03/04 05:05:35;;;;;;;117.15;61.35;;;7.40;99.90;;;;;;5018934;28;20675;-66
2024/03/04 05:08:01;;;;;;;115.43;58.95;;;7.40;99.90;;;;;;5004430;28;20189;-66
2024/03/04 05:10:27;;;;;;;109.40;56.47;;;7.40;99.90;;;;;;5004305;28;20188;-66
2024/03/04 05:12:52;;;;;;;107.32;56.97;;;7.50;99.90;;;;;;5004103;28;20227;-66
2024/03/04 05:15:19;;;;;;;101.72;55.83;;;7.50;99.90;;;;;;5003982;28;20287;-65
2024/03/04 05:17:44;;;;;;;103.20;56.10;;;7.50;99.90;;;;;;5019040;28;21285;-66
2024/03/04 05:20:15;;;;;;;106.10;55.88;;;7.60;99.90;;;;;;5018982;28;20181;-65
2024/03/04 05:22:42;;;;;;;110.18;57.65;;;7.60;99.90;;;;;;5003846;28;20200;-66
2024/03/04 05:25:08;;;;;;;99.35;54.80;;;7.60;99.90;;;;;;5004481;28;20582;-66
2024/03/04 05:27:34;;;;;;;102.68;56.08;;;7.70;99.90;;;;;;5003932;28;20287;-65
2024/03/04 05:30:00;;;;;;;96.95;54.80;;;7.70;99.90;;;;;;5003828;28;20193;-64
2024/03/04 05:32:25;;;;;;;99.80;54.15;;;7.70;99.90;;;;;;5004151;28;20220;-66
2024/03/04 05:34:51;;;;;;;97.85;55.28;;;7.70;99.90;;;;;;5003433;28;20192;-66
2024/03/04 05:37:17;;;;;;;99.25;54.03;;;7.80;99.90;;;;;;5002218;28;20185;-67
2024/03/04 05:39:49;;;;;;;100.43;54.00;;;7.80;99.90;;;;;;5005531;28;20181;-67
2024/03/04 05:42:15;;;;;;;98.25;52.95;;;7.80;99.90;;;;;;5001440;28;20197;-66
2024/03/04 05:44:41;;;;;;;98.40;52.53;;;7.80;99.90;;;;;;5003806;28;20181;-66
2024/03/04 05:47:07;;;;;;;94.10;52.72;;;7.80;99.90;;;;;;5017030;28;20240;-64
2024/03/04 05:49:35;;;;;;;90.22;52.45;;;7.90;99.90;;;;;;5003148;28;20224;-67
2024/03/04 05:52:01;;;;;;;95.38;53.08;;;7.90;99.90;;;;;;5003748;28;20220;-64
2024/03/04 05:54:26;;;;;;;93.90;51.58;;;7.90;99.90;;;;;;5002238;28;20646;-66
2024/03/04 05:56:52;;;;;;;93.82;51.88;;;7.90;99.90;;;;;;5003207;28;20235;-66
2024/03/04 05:59:18;;;;;;;88.80;51.08;;;8.00;99.90;;;;;;5002217;28;20263;-65
2024/03/04 06:01:45;;;;;;;90.18;50.05;;;8.00;99.90;;;;;;5003288;28;20247;-66
2024/03/04 06:04:11;;;;;;;98.43;52.97;;;8.10;99.90;;;;;;5003652;28;20216;-66
2024/03/04 06:06:36;;;;;;;99.80;52.40;;;8.10;99.90;;;;;;5003009;28;20266;-67
2024/03/04 06:09:03;;;;;;;89.05;51.67;;;8.10;99.90;;;;;;5002115;28;20567;-66
2024/03/04 06:11:30;;;;;;;101.53;54.28;;;8.10;99.90;;;;;;5017253;28;20227;-67
2024/03/04 06:13:56;;;;;;;103.97;54.30;;;8.20;99.90;;;;;;5001892;28;20207;-65
2024/03/04 06:16:22;;;;;;;106.45;53.58;;;8.20;99.90;;;;;;5002809;28;20193;-70
2024/03/04 06:18:47;;;;;;;91.90;50.22;;;8.20;99.90;;;;;;5004290;28;20189;-67
2024/03/04 06:21:14;;;;;;;87.45;50.45;;;8.20;99.90;;;;;;5003227;28;20196;-67
2024/03/04 06:23:40;;;;;;;84.15;48.80;;;8.20;99.90;;;;;;5017936;28;20528;-70
2024/03/04 06:26:11;;;;;;;91.07;50.78;;;8.20;99.90;;;;;;5002908;28;20193;-70
2024/03/04 06:28:37;;;;;;;95.72;52.33;;;8.30;99.90;;;;;;5002310;28;20184;-70
2024/03/04 06:31:03;;;;;;;96.60;52.67;;;8.30;99.90;;;;;;5001928;28;20208;-69
2024/03/04 06:33:28;;;;;;;95.15;50.50;;;8.40;99.90;;;;;;5002761;28;20582;-68
2024/03/04 06:35:54;;;;;;;92.68;51.20;;;8.40;99.90;;;;;;5002585;28;20173;-70
2024/03/04 06:38:20;;;;;;;102.75;55.17;;;8.40;99.90;;;;;;5003315;28;20184;-70
2024/03/04 06:40:46;;;;;;;99.22;52.10;;;8.50;99.90;;;;;;5003978;28;20286;-72
2024/03/04 06:43:11;;;;;;;99.00;53.25;;;8.50;99.90;;;;;;5002439;28;20195;-71
2024/03/04 06:45:37;;;;;;;96.47;53.80;;;8.50;99.90;;;;;;5002299;28;20723;-71
2024/03/04 06:48:03;;;;;;;98.00;52.15;;;8.60;99.90;;;;;;5002503;28;20725;-65
2024/03/04 06:50:30;;;;;;;102.95;53.45;;;8.60;99.90;;;;;;5002740;28;20537;-66
2024/03/04 06:52:56;;;;;;;108.07;55.70;;;8.60;99.90;;;;;;5001239;28;20216;-68
2024/03/04 06:55:22;;;;;;;113.72;56.45;;;8.60;99.90;;;;;;5016699;28;20189;-68
2024/03/04 06:57:48;;;;;;;113.10;56.10;;;8.60;99.90;;;;;;5002015;28;20192;-65
2024/03/04 07:00:15;;;;;;;116.82;55.97;;;8.60;99.90;;;;;;5002476;28;20192;-64
2024/03/04 07:02:40;;;;;;;117.97;55.67;;;8.60;99.90;;;;;;4985113;28;20204;-64
2024/03/04 07:05:07;;;;;;;119.50;57.25;;;8.60;99.90;;;;;;5002305;28;20192;-64
2024/03/04 07:07:32;;;;;;;119.72;57.13;;;8.70;99.90;;;;;;5002006;28;20192;-64
2024/03/04 07:09:59;;;;;;;115.78;55.30;;;8.70;99.90;;;;;;5001418;28;20257;-65
2024/03/04 07:12:25;;;;;;;114.47;56.10;;;8.70;99.90;;;;;;5001995;28;20224;-66
2024/03/04 07:14:51;;;;;;;127.97;58.65;;;8.70;99.90;;;;;;5000998;28;21914;-65
2024/03/04 07:17:17;;;;;;;118.20;58.35;;;8.70;99.90;;;;;;5001635;28;20192;-65
2024/03/04 07:19:43;;;;;;;111.22;56.13;;;8.70;99.90;;;;;;5000781;28;20196;-65
2024/03/04 07:22:08;;;;;;;115.57;59.13;;;8.70;99.90;;;;;;5000971;28;21915;-64
2024/03/04 07:24:34;;;;;;;115.43;58.08;;;8.70;99.90;;;;;;5000445;28;20641;-66
2024/03/04 07:27:00;;;;;;;111.97;57.38;;;8.70;99.90;;;;;;5000098;28;20187;-65
2024/03/04 07:29:26;;;;;;;108.90;56.05;;;8.70;99.90;;;;;;5001015;28;20211;-65
2024/03/04 07:31:51;;;;;;;109.00;55.67;;;8.70;99.90;;;;;;5001414;28;20271;-66
2024/03/04 07:34:17;;;;;;;108.57;55.25;;;8.70;99.90;;;;;;4999579;28;20192;-65
2024/03/04 07:36:43;;;;;;;111.60;53.80;;;8.80;99.90;;;;;;4999680;28;20216;-66
2024/03/04 07:39:09;;;;;;;88.47;48.55;;;8.80;99.90;;;;;;5000048;28;20638;-65
2024/03/04 07:41:34;;;;;;;107.28;48.65;;;8.80;99.90;;;;;;4999486;28;20680;-65
2024/03/04 07:44:00;;;;;;;80.20;42.78;;;8.70;99.90;;;;;;4999482;28;20578;-67
2024/03/04 07:46:26;;;;;;;76.75;44.47;;;8.70;99.90;;;;;;4999932;28;20247;-65
2024/03/04 07:48:52;;;;;;;83.20;45.60;;;8.60;99.90;;;;;;4999464;28;20577;-67
2024/03/04 07:51:17;;;;;;;80.63;45.05;;;8.60;99.90;;;;;;4998679;28;21149;-66
2024/03/04 07:53:43;;;;;;;79.13;46.20;;;8.50;99.90;;;;;;4999177;28;20218;-64
2024/03/04 07:56:10;;;;;;;78.72;45.58;;;8.50;99.90;;;;;;4999069;28;20275;-66
2024/03/04 07:58:36;;;;;;;87.05;45.85;;;8.50;99.90;;;;;;4998562;28;20185;-66
2024/03/04 08:01:02;;;;;;;98.88;48.10;;;8.50;99.90;;;;;;4998542;28;20211;-66
2024/03/04 08:03:28;;;;;;;105.15;48.25;;;8.50;99.90;;;;;;4998998;28;20195;-64
2024/03/04 08:05:54;;;;;;;125.72;50.45;;;8.50;99.90;;;;;;4999361;28;20189;-65
2024/03/04 08:08:20;;;;;;;164.55;51.58;;;8.50;99.90;;;;;;4999695;28;20193;-64
2024/03/04 08:10:45;;;;;;;168.60;49.97;;;8.50;99.90;;;;;;4999181;28;20263;-66
2024/03/04 08:13:11;;;;;;;141.25;50.65;;;8.60;99.90;;;;;;4999396;28;20212;-67
2024/03/04 08:15:37;;;;;;;154.13;50.30;;;8.60;99.90;;;;;;5000024;28;20226;-66
2024/03/04 08:18:03;;;;;;;148.32;49.40;;;8.60;99.90;;;;;;4998937;28;20272;-66
2024/03/04 08:20:29;;;;;;;148.25;49.88;;;8.60;99.90;;;;;;4999330;28;20195;-70
2024/03/04 08:22:54;;;;;;;207.75;51.17;;;8.60;99.90;;;;;;4999626;28;20196;-68
2024/03/04 08:25:20;;;;;;;152.27;50.13;;;8.60;99.90;;;;;;4998992;28;20192;-66
2024/03/04 08:27:46;;;;;;;136.80;51.78;;;8.70;99.90;;;;;;4999040;28;20192;-75
2024/03/04 08:30:15;;;;;;;198.73;52.42;;;8.70;99.90;;;;;;4998965;28;20602;-66
2024/03/04 08:32:46;;;;;;;162.18;50.97;;;8.70;99.90;;;;;;5000645;28;20656;-67
2024/03/04 08:35:12;;;;;;;150.95;51.50;;;8.80;99.90;;;;;;5002773;28;20613;-67
2024/03/04 08:37:39;;;;;;;147.88;52.85;;;8.90;99.90;;;;;;5002214;28;20343;-67
2024/03/04 08:40:06;;;;;;;176.02;51.85;;;9.00;99.90;;;;;;5002734;28;20192;-66
2024/03/04 08:42:32;;;;;;;189.40;51.95;;;9.20;99.90;;;;;;5003266;28;20193;-66
2024/03/04 08:44:58;;;;;;;134.55;50.70;;;9.30;99.90;;;;;;5003118;28;20204;-67
2024/03/04 08:47:23;;;;;;;125.97;51.78;;;9.30;99.90;;;;;;5004300;28;20192;-69
2024/03/04 08:49:49;;;;;;;119.97;50.50;;;9.40;99.90;;;;;;5004408;28;20244;-67
2024/03/04 08:52:15;;;;;;;127.03;50.63;;;9.50;99.90;;;;;;5004473;28;20703;-66
2024/03/04 08:54:40;;;;;;;125.18;51.63;;;9.50;99.90;;;;;;5004528;28;20283;-65
2024/03/04 08:57:07;;;;;;;127.63;51.83;;;9.50;99.90;;;;;;5001549;28;20246;-67
2024/03/04 08:59:33;;;;;;;123.65;49.80;;;9.60;99.90;;;;;;5018357;28;20652;-66
2024/03/04 09:01:59;;;;;;;114.65;51.25;;;9.60;99.90;;;;;;5002793;28;20204;-66
2024/03/04 09:04:25;;;;;;;112.47;49.35;;;9.60;99.90;;;;;;5001905;28;20196;-67
2024/03/04 09:06:50;;;;;;;106.38;47.53;;;9.70;99.90;;;;;;4986164;28;20578;-66
2024/03/04 09:09:16;;;;;;;95.50;45.58;;;9.70;99.90;;;;;;5003995;28;20231;-65
2024/03/04 09:11:42;;;;;;;99.15;45.80;;;9.70;99.90;;;;;;5000871;28;20213;-66
2024/03/04 09:14:08;;;;;;;91.68;45.20;;;9.70;99.90;;;;;;5002108;28;20657;-65
2024/03/04 09:16:34;;;;;;;95.32;44.13;;;9.80;99.90;;;;;;5003820;28;20803;-66
2024/03/04 09:19:00;;;;;;;96.35;44.40;;;9.80;99.90;;;;;;5003003;28;20268;-72
2024/03/04 09:21:26;;;;;;;102.90;47.17;;;9.80;99.90;;;;;;5002886;28;20216;-71
2024/03/04 09:23:53;;;;;;;100.57;46.13;;;9.80;99.90;;;;;;5004715;28;20191;-66
2024/03/04 09:26:19;;;;;;;90.47;43.25;;;9.90;99.90;;;;;;5001082;28;20260;-67
2024/03/04 09:28:50;;;;;;;93.85;44.90;;;9.90;99.90;;;;;;5001604;28;20196;-66
2024/03/04 09:31:16;;;;;;;107.15;48.40;;;10.00;99.90;;;;;;5002140;28;20625;-65
2024/03/04 09:33:45;;;;;;;99.60;45.90;;;10.00;99.90;;;;;;5003518;28;20192;-66
2024/03/04 09:36:12;;;;;;;97.20;44.50;;;10.00;99.90;;;;;;5003208;28;20208;-66
2024/03/04 09:38:38;;;;;;;98.10;45.47;;;10.10;99.90;;;;;;5002962;28;20204;-66
2024/03/04 09:41:03;;;;;;;100.30;47.05;;;10.20;99.90;;;;;;5003355;28;20184;-67
2024/03/04 09:43:34;;;;;;;104.65;45.85;;;10.20;99.90;;;;;;5002227;28;20196;-66
2024/03/04 09:46:00;;;;;;;105.50;47.53;;;10.20;99.90;;;;;;5002083;28;20275;-66
2024/03/04 09:48:27;;;;;;;109.97;48.47;;;10.30;99.90;;;;;;5003039;28;20573;-66
2024/03/04 09:50:54;;;;;;;110.25;48.38;;;10.30;99.90;;;;;;5001716;28;20193;-65
2024/03/04 09:53:21;;;;;;;114.93;48.53;;;10.30;99.90;;;;;;5002856;28;20264;-67
2024/03/04 09:55:47;;;;;;;114.25;48.47;;;10.30;99.90;;;;;;5002502;28;20254;-67
2024/03/04 09:58:14;;;;;;;110.82;48.97;;;10.30;99.90;;;;;;5002180;28;20188;-66
2024/03/04 10:00:40;;;;;;;106.28;47.25;;;10.40;99.90;;;;;;5002425;28;20181;-66
2024/03/04 10:03:09;;;;;;;109.03;46.95;;;10.40;99.90;;;;;;5001275;28;20255;-67
2024/03/04 10:05:35;;;;;;;104.45;46.40;;;10.40;99.90;;;;;;5003004;28;20193;-67
2024/03/04 10:08:02;;;;;;;98.45;44.95;;;10.30;99.90;;;;;;5002342;28;20184;-65
2024/03/04 10:10:29;;;;;;;111.85;46.90;;;10.30;99.90;;;;;;5002216;28;20207;-66
2024/03/04 10:12:55;;;;;;;117.75;49.88;;;10.20;99.90;;;;;;5001975;28;20219;-64
2024/03/04 10:15:22;;;;;;;120.03;49.13;;;10.20;99.90;;;;;;5002567;28;20177;-65
2024/03/04 10:17:50;;;;;;;109.43;49.03;;;10.30;99.90;;;;;;5003010;28;20613;-65
2024/03/04 10:20:15;;;;;;;108.85;47.13;;;10.30;99.90;;;;;;5001738;28;20538;-67
2024/03/04 10:22:42;;;;;;;103.40;46.08;;;10.40;99.90;;;;;;5002221;28;20246;-66
2024/03/04 10:25:13;;;;;;;105.65;47.42;;;10.40;99.90;;;;;;5001808;28;20207;-71
2024/03/04 10:27:42;;;;;;;109.88;47.13;;;10.50;99.90;;;;;;5001198;28;20187;-69
2024/03/04 10:30:09;;;;;;;104.72;47.85;;;10.60;99.90;;;;;;5002360;28;20188;-70
2024/03/04 10:32:36;;;;;;;111.18;49.05;;;10.70;99.90;;;;;;5002430;28;20222;-67
2024/03/04 10:35:04;;;;;;;109.75;48.67;;;10.80;99.90;;;;;;5001221;28;20282;-72
2024/03/04 10:37:33;;;;;;;105.68;47.28;;;10.80;99.90;;;;;;5002276;28;20558;-67
2024/03/04 10:39:59;;;;;;;100.32;45.33;;;10.80;99.90;;;;;;5000740;28;20200;-66
2024/03/04 10:42:25;;;;;;;98.20;45.45;;;10.90;99.90;;;;;;5001507;28;20192;-65
2024/03/04 10:44:53;;;;;;;92.05;43.80;;;10.90;99.90;;;;;;5002875;28;20201;-67
2024/03/04 10:47:22;;;;;;;98.35;44.83;;;10.90;99.90;;;;;;5002361;28;20192;-66
2024/03/04 10:49:50;;;;;;;116.88;48.25;;;10.90;99.90;;;;;;5002101;28;20267;-67
2024/03/04 10:52:16;;;;;;;102.13;45.45;;;10.90;99.90;;;;;;5000554;28;20228;-67
2024/03/04 10:54:42;;;;;;;97.18;44.78;;;10.90;99.90;;;;;;5000983;28;20173;-68
2024/03/04 10:57:28;;;;;;;103.35;44.88;;;10.90;99.90;;;;;;5001553;28;20200;-67
2024/03/04 11:00:25;;;;;;;98.78;44.58;;;10.90;99.90;;;;;;5001514;28;20660;-66
2024/03/04 11:03:15;;;;;;;106.38;44.42;;;10.90;99.90;;;;;;5001567;28;20192;-65
2024/03/04 11:05:44;;;;;;;98.78;46.05;;;10.90;99.90;;;;;;5001447;28;20197;-69
2024/03/04 11:08:23;;;;;;;104.43;46.00;;;11.00;99.90;;;;;;5002189;28;21336;-69
2024/03/04 11:11:07;;;;;;;100.05;43.90;;;11.00;99.90;;;;;;5003284;28;20280;-70
2024/03/04 11:13:54;;;;;;;100.20;43.88;;;11.00;99.90;;;;;;5001783;28;20200;-66
2024/03/04 11:16:34;;;;;;;101.95;46.33;;;11.00;99.90;;;;;;5001390;28;20251;-68
2024/03/04 11:19:26;;;;;;;109.93;46.30;;;11.00;99.90;;;;;;5001092;28;20196;-65
2024/03/04 11:21:53;;;;;;;113.75;46.58;;;11.00;99.90;;;;;;5001140;28;20615;-69
2024/03/04 11:24:20;;;;;;;99.60;45.20;;;11.00;99.90;;;;;;5001225;28;20201;-64
2024/03/04 11:26:48;;;;;;;98.20;45.25;;;11.00;99.90;;;;;;5001274;28;20204;-65
2024/03/04 11:29:15;;;;;;;97.57;43.50;;;11.00;99.90;;;;;;5001009;28;20228;-65
2024/03/04 11:31:56;;;;;;;94.55;42.90;;;11.00;99.90;;;;;;5001088;28;20292;-65
2024/03/04 11:34:22;;;;;;;102.05;43.67;;;10.90;99.90;;;;;;5015503;28;20196;-67
2024/03/04 11:36:50;;;;;;;98.15;41.63;;;10.90;99.90;;;;;;5001155;28;20192;-63
2024/03/04 11:39:21;;;;;;;86.32;41.42;;;10.90;99.90;;;;;;4999794;28;20197;-69
2024/03/04 11:41:51;;;;;;;96.90;43.50;;;10.90;99.90;;;;;;5001342;28;20279;-69
2024/03/04 11:44:26;;;;;;;96.18;42.67;;;10.80;99.90;;;;;;5000475;28;20272;-75
2024/03/04 11:46:55;;;;;;;103.60;42.22;;;10.90;99.90;;;;;;5001650;28;20943;-77
2024/03/04 11:49:27;;;;;;;96.85;42.35;;;10.90;99.90;;;;;;5003842;28;20231;-68
2024/03/04 11:51:56;;;;;;;96.85;42.10;;;10.80;99.90;;;;;;5000185;28;20381;-69
2024/03/04 11:54:37;;;;;;;96.70;41.72;;;10.80;99.90;;;;;;5000694;28;20641;-68
2024/03/04 11:57:05;;;;;;;96.38;41.88;;;10.70;99.90;;;;;;5017575;28;20184;-68
2024/03/04 11:59:31;;;;;;;100.38;42.03;;;10.70;99.90;;;;;;5005448;28;20195;-67
2024/03/04 12:01:57;;;;;;;93.78;41.47;;;10.60;99.90;;;;;;5000683;28;20291;-70
2024/03/04 12:04:25;;;;;;;100.15;42.03;;;10.60;99.90;;;;;;5016206;28;20279;-67
2024/03/04 12:06:57;;;;;;;101.97;40.85;;;10.50;99.90;;;;;;5015681;28;20201;-67
2024/03/04 12:09:25;;;;;;;99.55;42.00;;;10.50;99.90;;;;;;5000341;28;20567;-72
2024/03/04 12:11:55;;;;;;;99.20;41.00;;;10.50;99.90;;;;;;5005317;28;21130;-68
2024/03/04 12:14:24;;;;;;;96.43;42.45;;;10.50;99.90;;;;;;5002565;28;20282;-69
2024/03/04 12:16:50;;;;;;;100.03;41.40;;;10.60;99.90;;;;;;4999217;28;20180;-71
2024/03/04 12:19:16;;;;;;;111.20;43.40;;;10.60;99.90;;;;;;4998926;28;20435;-70
2024/03/04 12:21:43;;;;;;;97.03;42.33;;;10.60;99.90;;;;;;5000606;28;20196;-68
2024/03/04 12:24:09;;;;;;;109.60;41.63;;;10.60;99.90;;;;;;5000145;28;20597;-68
2024/03/04 12:26:35;;;;;;;108.38;44.28;;;10.60;99.90;;;;;;5000416;28;20199;-69
2024/03/04 12:29:07;;;;;;;111.00;42.92;;;10.60;99.90;;;;;;5000852;28;20654;-72